Portada
METAR-TAF:

METAR-TAF

Aeropuertos :

Warsaw Municipal Airport

Warsaw, Indiana, Estados Unidos

latitud: 41-16-28N, longitud: 085-50-24W, altitud: 259 m

Observación

El informe se hizo hace 30 minutos, a las 20:35 UTC
Viento calma
Temperatura 31°C
Humedad 52%
Presión 1024 hPa
Visibilidad: 16.1 km
Nubes dispersas a una altura de 4900 ft
Nubes dispersas a una altura de 6000 ft

METAR: KASW 192035Z AUTO 00000KT 10SM SCT049 SCT060 31/20 A3023 RMK AO2 T03150202

Hora: 17:05 (21:05 UTC)


TAF: falta

Observaciones y pronósticos meteorológicos de más de 4000 aeropuertos (mensajes METAR y TAF).

Los puntos amarillos y rojos representan las estaciones disponibles.

Ponga el ratón en el punto deseado para ver el nombre de la estación.

Haga clic para ver las observaciones y los pronósticos meteorológicos.

Para cambiar el mapa : haga clic en los botones verdes con una cruz de color negro para hacer un zoom, en el botón verde con un guión para alejar o en las flechas verdes para mapas adyacentes.


METAR-TAF: